Hauptseite
METAR-TAF:

METAR-TAF

Flughäfen :

Islay, Schottland

Islay Airport

Breite: 55-40-55N, Länge: 006-15-24W, Höhe: 16 m

Beobachtung

Neuester Wetterbericht von vor 22 Minuten, um 23:50 UTC
Wind 14 kt aus Süd/Südost, variierte zwischen Ost/Südost und Süd
Temperatur 9°C
Luftfeuchtigkeit 100%
Luftdruck 1009 hPa
Sichtweite: 4300 m
Leichtregen

METAR: EGPI 192350Z AUTO 15014KT 120V190 4300 -RA FEW004/// BKN011/// BKN021/// 09/09 Q1009

Zeit: 00:12 (00:12 UTC)

Prognose

Neuester Wetterbericht von vor 10 Stunden und 15 Minuten, um 13:57 UTC
Gültige Prognose vom 19 um 15 UTC bis 19 um 18 UTC
Wind 7 kt aus Süd/Südost
Sichtweite 10 km oder mehr
Leicht bewölkt in der Höhe von 2000 ft
Durchbrochene Bewölkung in der Höhe von 3500 ft
Wahrscheinlichkeit 40% :
Zeitweise
vom 19 um 15 UTC bis 19 um 18 UTC
Sichtweite: 8000 m
Leichtregen

TAF: EGPI 191357Z 1915/1918 16007KT 9999 FEW020 BKN035 PROB40 TEMPO 1915/1918 8000 -RA

Wetterbeobachtungen und Prognosen von mehr als 4000 Flughäfen (METAR und TAF Bericht).

Die verfügbaren Stationen werden durch gelbe und rote Markierungen auf der Karte dargestellt.

Führen Sie die Maus auf sie, um den Namen der Station zu sehen.

Darauf klicken, um die Beobachtung von Wetterbeobachtungen und Prognosen zu sehen.

Um die Karte zu ändern : klicken Sie auf den grünen Tasten mit einem schwarzen Kreuz Zum Vergrößern, auf den grünen Button mit einem Gedankenstrich zu verkleinern, oder auf die grünen Pfeile für benachbarte Karten.


METAR-TAF: